createdAt,value
2024-01-15T00:00:20.127Z,14.76
2024-01-15T00:02:46.543Z,14.46
2024-01-15T00:05:12.972Z,14.94
2024-01-15T00:07:39.369Z,14.35
2024-01-15T00:10:06.098Z,15.20
2024-01-15T00:12:32.523Z,15.14
2024-01-15T00:14:58.969Z,14.60
2024-01-15T00:17:25.408Z,14.42
2024-01-15T00:19:51.997Z,13.30
2024-01-15T00:22:19.056Z,13.20
2024-01-15T00:24:45.546Z,13.76
2024-01-15T00:27:11.988Z,13.85
2024-01-15T00:29:38.665Z,14.79
2024-01-15T00:32:07.741Z,14.93
2024-01-15T00:34:34.232Z,14.56
2024-01-15T00:37:00.856Z,14.46
2024-01-15T00:39:27.598Z,14.63
2024-01-15T00:41:54.168Z,14.22
2024-01-15T00:44:20.891Z,14.88
2024-01-15T00:46:47.522Z,14.84
2024-01-15T00:49:15.037Z,14.75
2024-01-15T00:51:42.077Z,14.49
2024-01-15T00:54:08.766Z,13.60
2024-01-15T00:56:35.381Z,13.22
2024-01-15T00:59:02.026Z,12.54
2024-01-15T01:01:28.758Z,12.44
2024-01-15T01:03:55.699Z,11.94
2024-01-15T01:06:22.386Z,12.17
2024-01-15T01:08:48.924Z,12.13
2024-01-15T01:11:16.432Z,11.87
2024-01-15T01:13:43.541Z,12.44
2024-01-15T01:16:10.186Z,12.68
2024-01-15T01:18:39.684Z,12.59
2024-01-15T01:21:06.528Z,12.30
2024-01-15T01:23:33.094Z,12.38
2024-01-15T01:25:59.654Z,12.35
2024-01-15T01:28:26.274Z,12.62
2024-01-15T01:30:52.938Z,13.43
2024-01-15T01:33:19.746Z,14.42
2024-01-15T01:35:46.592Z,14.39
2024-01-15T01:38:13.743Z,14.03
2024-01-15T01:40:40.421Z,14.24
2024-01-15T01:43:07.061Z,13.51
2024-01-15T01:45:33.690Z,13.49
2024-01-15T01:48:02.439Z,12.69
2024-01-15T01:50:32.028Z,12.70
2024-01-15T01:52:58.911Z,10.64
2024-01-15T01:55:28.685Z,7.68
2024-01-15T01:57:56.921Z,5.28
2024-01-15T02:00:23.782Z,3.45
2024-01-15T02:02:50.728Z,2.61
2024-01-15T02:05:20.238Z,2.30
2024-01-15T02:07:47.058Z,1.91
2024-01-15T02:10:14.435Z,2.14
2024-01-15T02:12:41.135Z,2.04
2024-01-15T02:15:08.262Z,1.69
2024-01-15T02:17:34.820Z,1.56
2024-01-15T02:20:01.913Z,1.79
2024-01-15T02:22:28.641Z,1.92
2024-01-15T02:24:55.288Z,1.78
2024-01-15T02:27:22.383Z,2.15
2024-01-15T02:29:49.939Z,2.15
2024-01-15T02:32:16.493Z,2.24
2024-01-15T02:34:43.131Z,2.16
2024-01-15T02:37:09.777Z,1.81
2024-01-15T02:39:36.359Z,2.13
2024-01-15T02:42:02.901Z,2.01
2024-01-15T02:44:29.480Z,1.77
2024-01-15T02:46:55.987Z,1.87
2024-01-15T02:49:22.666Z,1.75
2024-01-15T02:51:49.304Z,1.88
2024-01-15T02:54:15.921Z,1.93
2024-01-15T02:56:42.447Z,1.86
2024-01-15T02:59:09.070Z,1.91
2024-01-15T03:01:35.622Z,2.07
2024-01-15T03:04:02.451Z,2.05
2024-01-15T03:06:29.085Z,2.11
2024-01-15T03:08:55.600Z,1.88
2024-01-15T03:11:22.054Z,1.92
2024-01-15T03:13:48.512Z,1.93
2024-01-15T03:16:14.994Z,1.92
2024-01-15T03:18:41.481Z,1.88
2024-01-15T03:21:08.035Z,1.73
2024-01-15T03:23:34.470Z,1.59
2024-01-15T03:26:01.211Z,1.43
2024-01-15T03:28:27.629Z,1.31
2024-01-15T03:30:54.174Z,1.24
2024-01-15T03:33:23.164Z,1.07
2024-01-15T03:35:49.680Z,1.14
2024-01-15T03:38:16.094Z,1.30
2024-01-15T03:40:42.744Z,1.44
2024-01-15T03:43:09.275Z,1.62
2024-01-15T03:45:38.888Z,1.63
2024-01-15T03:48:05.805Z,1.68
2024-01-15T03:50:32.440Z,1.57
2024-01-15T03:52:58.836Z,1.53
2024-01-15T03:55:25.290Z,1.52
2024-01-15T03:57:51.793Z,1.57
2024-01-15T04:00:18.434Z,1.59
2024-01-15T04:02:44.878Z,1.59
2024-01-15T04:05:11.492Z,1.67
2024-01-15T04:07:37.861Z,1.67
2024-01-15T04:10:04.923Z,1.68
2024-01-15T04:12:31.487Z,1.68
2024-01-15T04:14:58.069Z,1.49
2024-01-15T04:17:24.642Z,1.55
2024-01-15T04:19:51.373Z,1.48
2024-01-15T04:22:17.939Z,1.63
2024-01-15T04:24:44.757Z,1.69
2024-01-15T04:27:11.492Z,1.62
2024-01-15T04:29:41.900Z,1.69
2024-01-15T04:32:08.793Z,1.52
2024-01-15T04:34:35.648Z,1.61
2024-01-15T04:37:02.623Z,1.60
2024-01-15T04:39:29.681Z,1.86
2024-01-15T04:41:56.269Z,1.65
2024-01-15T04:44:23.332Z,1.52
2024-01-15T04:46:49.877Z,1.82
2024-01-15T04:49:16.615Z,1.68
2024-01-15T04:51:43.314Z,1.76
2024-01-15T04:54:09.800Z,1.68
2024-01-15T04:56:36.210Z,1.84
2024-01-15T04:59:02.604Z,1.87
2024-01-15T05:01:35.510Z,1.82
2024-01-15T05:04:02.210Z,1.83
2024-01-15T05:06:28.821Z,1.93
2024-01-15T05:08:55.309Z,2.06
2024-01-15T05:11:21.734Z,1.96
2024-01-15T05:13:48.203Z,2.13
2024-01-15T05:16:14.734Z,2.09
2024-01-15T05:18:41.266Z,2.22
2024-01-15T05:21:07.745Z,2.28
2024-01-15T05:23:35.745Z,2.12
2024-01-15T05:26:02.195Z,2.32
2024-01-15T05:28:28.782Z,2.39
2024-01-15T05:30:55.304Z,2.27
2024-01-15T05:33:22.572Z,2.31
2024-01-15T05:35:49.043Z,2.53
2024-01-15T05:38:15.400Z,2.58
2024-01-15T05:40:41.755Z,2.73
2024-01-15T05:43:08.138Z,2.68
2024-01-15T05:45:36.107Z,2.56
2024-01-15T05:48:02.854Z,2.58
2024-01-15T05:50:29.289Z,2.59
2024-01-15T05:52:55.842Z,3.13
2024-01-15T05:55:22.401Z,2.87
2024-01-15T05:57:49.114Z,3.12
2024-01-15T06:00:16.248Z,3.34
2024-01-15T06:02:42.799Z,3.42
2024-01-15T06:05:09.356Z,3.50
2024-01-15T06:07:36.382Z,3.37
2024-01-15T06:10:03.559Z,3.53
2024-01-15T06:12:30.119Z,3.29
2024-01-15T06:14:56.625Z,3.52
2024-01-15T06:17:23.230Z,3.54
2024-01-15T06:19:50.960Z,3.77
2024-01-15T06:22:17.747Z,3.68
2024-01-15T06:24:44.317Z,3.92
2024-01-15T06:27:10.917Z,3.60
2024-01-15T06:29:39.299Z,3.54
2024-01-15T06:32:06.111Z,3.84
2024-01-15T06:34:32.734Z,3.96
2024-01-15T06:36:59.443Z,3.92
2024-01-15T06:39:28.470Z,4.06
2024-01-15T06:41:55.102Z,3.93
2024-01-15T06:44:21.741Z,4.18
2024-01-15T06:46:49.154Z,4.24
2024-01-15T06:49:15.769Z,4.25
2024-01-15T06:51:42.269Z,3.84
2024-01-15T06:54:08.784Z,4.29
2024-01-15T06:56:35.449Z,3.98
2024-01-15T06:59:02.100Z,4.33
2024-01-15T07:01:28.623Z,4.53
2024-01-15T07:03:55.334Z,4.27
2024-01-15T07:06:21.814Z,4.48
2024-01-15T07:08:48.257Z,4.73
2024-01-15T07:11:14.768Z,5.02
2024-01-15T07:13:41.200Z,5.26
2024-01-15T07:16:07.658Z,4.83
2024-01-15T07:18:34.269Z,5.18
2024-01-15T07:21:00.776Z,5.11
2024-01-15T07:23:29.825Z,5.37
2024-01-15T07:25:57.557Z,5.22
2024-01-15T07:28:24.107Z,5.69
2024-01-15T07:30:50.611Z,5.47
2024-01-15T07:33:17.221Z,5.69
2024-01-15T07:35:43.778Z,5.78
2024-01-15T07:38:10.212Z,5.84
2024-01-15T07:40:36.708Z,5.67
2024-01-15T07:43:03.391Z,5.73
2024-01-15T07:45:30.048Z,5.79
2024-01-15T07:47:56.725Z,5.75
2024-01-15T07:50:23.540Z,5.82
2024-01-15T07:52:50.106Z,6.09
2024-01-15T07:55:16.812Z,5.86
2024-01-15T07:57:43.552Z,6.01
2024-01-15T08:00:12.294Z,5.80
2024-01-15T08:02:39.223Z,5.69
2024-01-15T08:05:06.412Z,5.96
2024-01-15T08:07:33.183Z,6.09
2024-01-15T08:10:04.060Z,5.82
2024-01-15T08:12:30.568Z,5.61
2024-01-15T08:14:57.144Z,5.74
2024-01-15T08:17:23.746Z,5.65
2024-01-15T08:19:50.759Z,6.12
2024-01-15T08:22:20.606Z,6.09
2024-01-15T08:24:47.286Z,6.23
2024-01-15T08:27:13.942Z,6.28
2024-01-15T08:29:40.750Z,6.37
2024-01-15T08:32:07.421Z,6.06
2024-01-15T08:34:36.395Z,5.75
2024-01-15T08:37:03.036Z,6.12
2024-01-15T08:39:29.762Z,6.33
2024-01-15T08:41:56.299Z,6.96
2024-01-15T08:44:22.864Z,6.78
2024-01-15T08:46:49.311Z,6.77
2024-01-15T08:49:15.924Z,6.82
2024-01-15T08:51:42.597Z,7.19
2024-01-15T08:54:09.093Z,7.16
2024-01-15T08:56:35.878Z,6.91
2024-01-15T08:59:02.314Z,7.56
2024-01-15T09:01:28.780Z,7.52
2024-01-15T09:03:55.574Z,7.82
2024-01-15T09:06:22.562Z,7.82
2024-01-15T09:08:49.336Z,8.16
2024-01-15T09:11:16.027Z,8.21
2024-01-15T09:13:42.733Z,7.80
2024-01-15T09:16:09.512Z,8.27
2024-01-15T09:18:36.607Z,8.61
2024-01-15T09:21:04.557Z,7.99
2024-01-15T09:23:33.464Z,8.04
2024-01-15T09:26:00.195Z,7.16
2024-01-15T09:28:26.795Z,6.42
2024-01-15T09:30:53.481Z,5.97
2024-01-15T09:33:20.399Z,6.13
2024-01-15T09:35:48.045Z,5.89
2024-01-15T09:38:15.435Z,5.84
2024-01-15T09:40:46.354Z,5.96
2024-01-15T09:43:13.733Z,5.78
2024-01-15T09:45:40.714Z,6.16
2024-01-15T09:48:07.856Z,6.18
2024-01-15T09:50:34.835Z,6.01
2024-01-15T09:53:02.553Z,5.69
2024-01-15T09:55:30.534Z,5.73
2024-01-15T09:57:59.034Z,6.00
2024-01-15T10:00:27.917Z,5.50
2024-01-15T10:02:54.632Z,5.88
2024-01-15T10:05:21.243Z,6.46
2024-01-15T10:07:49.232Z,6.16
2024-01-15T10:10:15.980Z,5.42
2024-01-15T10:12:43.787Z,5.66
2024-01-15T10:15:11.158Z,6.07
2024-01-15T10:17:39.025Z,5.73
2024-01-15T10:20:13.213Z,6.30
2024-01-15T10:22:45.022Z,6.88
2024-01-15T10:25:12.456Z,7.79
2024-01-15T10:27:39.109Z,7.57
2024-01-15T10:30:06.105Z,7.59
2024-01-15T10:32:33.591Z,7.89
2024-01-15T10:35:00.512Z,7.72
2024-01-15T10:37:29.356Z,7.96
2024-01-15T10:39:56.908Z,7.01
2024-01-15T10:42:23.749Z,6.94
2024-01-15T10:44:50.580Z,7.02
2024-01-15T10:47:17.534Z,6.56
2024-01-15T10:49:46.142Z,6.30
2024-01-15T10:52:13.022Z,6.66
2024-01-15T10:54:41.025Z,5.93
2024-01-15T10:57:08.385Z,5.61
2024-01-15T10:59:35.640Z,6.23
2024-01-15T11:02:03.022Z,5.54
2024-01-15T11:04:33.326Z,5.82
2024-01-15T11:07:01.894Z,6.07
2024-01-15T11:09:28.806Z,6.00
2024-01-15T11:12:12.260Z,5.68
2024-01-15T11:14:43.480Z,5.86
2024-01-15T11:17:10.596Z,5.57
2024-01-15T11:19:45.246Z,5.48
2024-01-15T11:22:31.833Z,5.62
2024-01-15T11:25:03.555Z,5.54
2024-01-15T11:27:59.025Z,5.76
2024-01-15T11:30:27.346Z,5.39
2024-01-15T11:32:54.157Z,5.11
2024-01-15T11:35:20.931Z,5.44
2024-01-15T11:37:53.716Z,5.11
2024-01-15T11:40:36.745Z,4.49
2024-01-15T11:43:03.845Z,4.56
2024-01-15T11:45:32.253Z,4.50
2024-01-15T11:48:11.857Z,4.40
2024-01-15T11:50:42.193Z,4.66
2024-01-15T11:53:18.189Z,4.43
2024-01-15T11:55:46.534Z,4.44
2024-01-15T11:58:15.708Z,4.49
2024-01-15T12:00:46.150Z,4.77
2024-01-15T12:03:13.166Z,4.52
2024-01-15T12:05:40.980Z,4.59
2024-01-15T12:08:12.496Z,4.63
2024-01-15T12:10:40.922Z,4.64
2024-01-15T12:13:17.497Z,4.85
2024-01-15T12:15:46.199Z,5.10
2024-01-15T12:18:17.607Z,5.20
2024-01-15T12:20:45.463Z,5.01
2024-01-15T12:23:15.372Z,5.04
2024-01-15T12:25:42.652Z,5.19
2024-01-15T12:28:12.329Z,5.08
2024-01-15T12:30:40.604Z,4.82
2024-01-15T12:33:10.437Z,5.14
2024-01-15T12:35:38.614Z,4.97
2024-01-15T12:38:05.949Z,4.90
2024-01-15T12:40:34.564Z,4.99
2024-01-15T12:43:02.008Z,4.98
2024-01-15T12:45:31.836Z,4.98
2024-01-15T12:48:01.648Z,5.34
2024-01-15T12:50:28.477Z,5.00
2024-01-15T12:52:55.092Z,5.07
2024-01-15T12:55:21.644Z,5.09
2024-01-15T12:57:48.186Z,4.99
2024-01-15T13:00:15.540Z,5.18
2024-01-15T13:02:45.268Z,5.28
2024-01-15T13:05:14.330Z,5.84
2024-01-15T13:07:42.004Z,5.63
2024-01-15T13:10:09.106Z,5.13
2024-01-15T13:12:36.354Z,4.88
2024-01-15T13:15:03.149Z,4.80
2024-01-15T13:17:31.748Z,5.08
2024-01-15T13:19:58.651Z,4.63
2024-01-15T13:22:25.966Z,4.96
2024-01-15T13:24:52.664Z,5.09
2024-01-15T13:27:19.262Z,5.25
2024-01-15T13:29:45.813Z,4.75
2024-01-15T13:32:23.555Z,4.62
2024-01-15T13:34:50.277Z,4.24
2024-01-15T13:37:17.273Z,4.04
2024-01-15T13:39:44.039Z,3.96
2024-01-15T13:42:10.735Z,3.96
2024-01-15T13:44:37.275Z,4.16
2024-01-15T13:47:04.378Z,3.71
2024-01-15T13:49:30.928Z,3.74
2024-01-15T13:51:57.517Z,3.63
2024-01-15T13:54:34.081Z,3.45
2024-01-15T13:57:08.380Z,3.65
2024-01-15T13:59:35.023Z,3.47
2024-01-15T14:02:01.711Z,3.38
2024-01-15T14:04:28.399Z,3.17
2024-01-15T14:06:55.177Z,3.18
2024-01-15T14:09:21.811Z,3.17
2024-01-15T14:11:49.311Z,3.04
2024-01-15T14:14:15.965Z,3.06
2024-01-15T14:16:43.500Z,2.79
2024-01-15T14:19:10.224Z,2.52
2024-01-15T14:21:40.274Z,2.70
2024-01-15T14:24:08.634Z,2.19
2024-01-15T14:26:35.668Z,4.55
2024-01-15T14:29:06.346Z,2.71
2024-01-15T14:31:33.302Z,1.90
2024-01-15T14:34:00.423Z,1.82
2024-01-15T14:36:27.051Z,1.65
2024-01-15T14:38:53.708Z,1.65
2024-01-15T14:41:20.412Z,1.58
2024-01-15T14:43:46.966Z,1.89
2024-01-15T14:46:16.065Z,2.35
2024-01-15T14:48:42.863Z,2.75
2024-01-15T14:51:09.902Z,3.43
2024-01-15T14:53:37.688Z,3.66
2024-01-15T14:56:04.348Z,3.70
2024-01-15T14:58:30.976Z,4.52
2024-01-15T15:00:57.928Z,5.34
2024-01-15T15:03:26.069Z,4.25
2024-01-15T15:05:52.861Z,4.18
2024-01-15T15:08:19.559Z,3.99
2024-01-15T15:10:48.410Z,4.28
2024-01-15T15:13:15.374Z,4.29
2024-01-15T15:15:43.616Z,4.60
2024-01-15T15:18:10.571Z,4.45
2024-01-15T15:20:37.709Z,4.27
2024-01-15T15:23:04.643Z,3.12
2024-01-15T15:25:33.421Z,2.90
2024-01-15T15:28:00.783Z,3.16
2024-01-15T15:30:27.980Z,3.09
2024-01-15T15:32:55.030Z,2.74
2024-01-15T15:35:24.696Z,3.07
2024-01-15T15:37:51.620Z,3.00
2024-01-15T15:40:18.565Z,3.19
2024-01-15T15:42:45.344Z,2.68
2024-01-15T15:45:14.103Z,2.92
2024-01-15T15:47:42.613Z,3.23
2024-01-15T15:50:09.911Z,2.98
2024-01-15T15:52:37.332Z,2.31
2024-01-15T15:55:04.585Z,2.99
2024-01-15T15:57:33.587Z,2.88
2024-01-15T16:00:00.684Z,3.04
2024-01-15T16:02:27.487Z,3.41
2024-01-15T16:04:54.298Z,3.17
2024-01-15T16:07:21.191Z,2.67
2024-01-15T16:09:47.955Z,2.94
2024-01-15T16:12:14.634Z,2.67
2024-01-15T16:14:41.341Z,2.75
2024-01-15T16:23:14.515Z,3.06
2024-01-15T16:23:27.881Z,3.22
2024-01-15T16:23:43.577Z,3.06
2024-01-15T16:25:31.961Z,2.77
2024-01-15T16:27:59.163Z,2.81
2024-01-15T16:30:38.205Z,2.69
2024-01-15T16:33:11.049Z,2.62
2024-01-15T16:35:42.272Z,2.51
2024-01-15T16:38:09.087Z,2.58
2024-01-15T16:40:37.102Z,2.55
2024-01-15T16:43:04.439Z,2.31
2024-01-15T16:45:31.332Z,2.64
2024-01-15T16:47:58.094Z,2.55
2024-01-15T16:50:24.834Z,2.42
2024-01-15T16:52:51.631Z,2.51
2024-01-15T16:55:18.441Z,2.44
2024-01-15T16:57:47.268Z,2.19
2024-01-15T17:00:14.272Z,2.33
2024-01-15T17:02:40.894Z,2.49
2024-01-15T17:05:07.751Z,2.37
2024-01-15T17:07:34.457Z,2.66
2024-01-15T17:10:00.935Z,2.62
2024-01-15T17:12:27.449Z,2.58
2024-01-15T17:14:54.026Z,3.04
2024-01-15T17:17:20.707Z,2.92
2024-01-15T17:19:47.298Z,2.85
2024-01-15T17:22:13.845Z,3.16
2024-01-15T17:24:40.616Z,3.48
2024-01-15T17:27:07.151Z,3.20
2024-01-15T17:29:35.749Z,4.46
2024-01-15T17:32:02.434Z,6.91
2024-01-15T17:34:29.320Z,5.61
2024-01-15T17:36:56.292Z,4.79
2024-01-15T17:39:22.949Z,6.24
2024-01-15T17:41:49.657Z,7.04
2024-01-15T17:44:16.540Z,4.71
2024-01-15T17:46:43.516Z,3.56
2024-01-15T17:49:10.690Z,3.65
2024-01-15T17:51:37.474Z,3.22
2024-01-15T17:54:04.113Z,4.44
2024-01-15T17:56:30.952Z,4.81
2024-01-15T17:58:57.507Z,5.17
2024-01-15T18:01:24.174Z,5.01
2024-01-15T18:03:51.687Z,4.65
2024-01-15T18:06:18.700Z,4.66
2024-01-15T18:08:45.651Z,7.07
2024-01-15T18:11:18.474Z,6.47
2024-01-15T18:13:44.978Z,7.39
2024-01-15T18:16:14.178Z,6.66
2024-01-15T18:18:43.533Z,5.10
2024-01-15T18:21:10.164Z,8.52
2024-01-15T18:23:37.148Z,7.62
2024-01-15T18:26:05.670Z,5.98
2024-01-15T18:28:32.221Z,6.89
2024-01-15T18:30:58.675Z,6.23
2024-01-15T18:33:25.387Z,11.42
2024-01-15T18:35:52.327Z,6.37
2024-01-15T18:38:19.081Z,5.02
2024-01-15T18:40:45.653Z,6.45
2024-01-15T18:43:12.202Z,6.47
2024-01-15T18:45:38.828Z,5.86
2024-01-15T18:48:05.804Z,6.16
2024-01-15T18:50:32.687Z,6.44
2024-01-15T18:52:59.497Z,6.71
2024-01-15T18:55:26.095Z,6.31
2024-01-15T18:57:52.730Z,6.52
2024-01-15T19:00:19.704Z,6.09
2024-01-15T19:02:46.441Z,6.26
2024-01-15T19:05:13.197Z,6.07
2024-01-15T19:07:40.045Z,6.13
2024-01-15T19:10:07.925Z,6.40
2024-01-15T19:12:39.131Z,16.85
2024-01-15T19:15:06.706Z,10.55
2024-01-15T19:17:33.502Z,10.83
2024-01-15T19:20:01.469Z,8.58
2024-01-15T19:22:28.103Z,9.03
2024-01-15T19:24:54.691Z,8.07
2024-01-15T19:27:21.305Z,7.44
2024-01-15T19:29:47.817Z,6.94
2024-01-15T19:32:14.613Z,8.92
2024-01-15T19:34:43.770Z,7.95
2024-01-15T19:37:10.329Z,7.10
2024-01-15T19:39:36.856Z,6.54
2024-01-15T19:42:03.397Z,7.09
2024-01-15T19:44:30.204Z,7.49
2024-01-15T19:46:56.803Z,5.87
2024-01-15T19:49:23.312Z,6.78
2024-01-15T19:51:49.910Z,5.97
2024-01-15T19:54:18.391Z,6.50
2024-01-15T19:56:44.946Z,5.48
2024-01-15T19:59:11.902Z,5.51
2024-01-15T20:01:38.403Z,5.74
2024-01-15T20:04:05.247Z,5.63
2024-01-15T20:06:31.923Z,6.24
2024-01-15T20:08:58.400Z,6.41
2024-01-15T20:11:24.891Z,5.65
2024-01-15T20:13:51.470Z,8.85
2024-01-15T20:16:17.920Z,6.61
2024-01-15T20:18:44.793Z,6.44
2024-01-15T20:21:11.910Z,5.59
2024-01-15T20:23:46.661Z,5.10
2024-01-15T20:26:21.581Z,4.72
2024-01-15T20:28:48.247Z,4.55
2024-01-15T20:31:15.006Z,4.08
2024-01-15T20:33:42.173Z,4.35
2024-01-15T20:36:09.375Z,4.23
2024-01-15T20:38:36.765Z,3.38
2024-01-15T20:41:03.462Z,4.18
2024-01-15T20:43:30.220Z,4.18
2024-01-15T20:45:56.780Z,3.84
2024-01-15T20:48:23.512Z,4.62
2024-01-15T20:50:50.510Z,3.98
2024-01-15T20:53:17.169Z,3.97
2024-01-15T20:55:43.929Z,3.80
2024-01-15T20:58:10.818Z,3.47
2024-01-15T21:00:37.580Z,3.68
2024-01-15T21:03:04.404Z,3.93
2024-01-15T21:05:31.104Z,3.78
2024-01-15T21:07:57.601Z,3.76
2024-01-15T21:10:24.150Z,3.62
2024-01-15T21:12:50.789Z,3.55
2024-01-15T21:15:17.714Z,3.26
2024-01-15T21:17:45.301Z,3.34
2024-01-15T21:20:13.538Z,3.53
2024-01-15T21:22:40.169Z,3.37
2024-01-15T21:25:06.841Z,3.13
2024-01-15T21:27:33.700Z,3.18
2024-01-15T21:30:00.329Z,3.41
2024-01-15T21:32:26.924Z,3.52
2024-01-15T21:34:53.517Z,3.59
2024-01-15T21:37:20.025Z,3.49
2024-01-15T21:39:46.603Z,3.88
2024-01-15T21:42:16.311Z,4.53
2024-01-15T21:44:43.433Z,4.42
2024-01-15T21:47:10.090Z,4.45
2024-01-15T21:49:36.615Z,4.59
2024-01-15T21:52:03.362Z,4.70
2024-01-15T21:54:29.914Z,4.68
2024-01-15T21:56:56.672Z,4.72
2024-01-15T21:59:23.680Z,4.75
2024-01-15T22:01:50.399Z,4.74
2024-01-15T22:04:17.113Z,4.90
2024-01-15T22:06:43.873Z,4.95
2024-01-15T22:09:10.555Z,4.95
2024-01-15T22:11:37.168Z,4.82
2024-01-15T22:14:03.720Z,5.01
2024-01-15T22:16:30.386Z,5.18
2024-01-15T22:19:02.696Z,5.60
2024-01-15T22:21:29.691Z,5.58
2024-01-15T22:23:56.174Z,5.68
2024-01-15T22:26:22.710Z,5.36
2024-01-15T22:28:49.278Z,5.50
2024-01-15T22:31:15.781Z,5.33
2024-01-15T22:33:43.504Z,5.49
2024-01-15T22:36:10.027Z,5.15
2024-01-15T22:38:36.532Z,5.27
2024-01-15T22:41:03.073Z,5.11
2024-01-15T22:43:29.496Z,5.16
2024-01-15T22:45:56.072Z,5.28
2024-01-15T22:48:22.680Z,4.82
2024-01-15T22:50:49.167Z,4.87
2024-01-15T22:53:15.652Z,4.93
2024-01-15T22:55:42.176Z,4.57
2024-01-15T22:58:08.718Z,4.54
2024-01-15T23:00:35.299Z,4.80
2024-01-15T23:03:01.870Z,4.70
2024-01-15T23:05:28.444Z,4.82
2024-01-15T23:07:55.099Z,4.64
2024-01-15T23:10:21.784Z,4.78
2024-01-15T23:12:48.318Z,4.60
2024-01-15T23:15:15.018Z,4.38
2024-01-15T23:17:42.742Z,4.65
2024-01-15T23:20:10.068Z,4.53
2024-01-15T23:22:36.875Z,4.22
2024-01-15T23:25:03.974Z,4.07
2024-01-15T23:27:30.552Z,4.30
2024-01-15T23:29:57.155Z,4.58
2024-01-15T23:32:24.090Z,4.94
2024-01-15T23:34:50.669Z,4.15
2024-01-15T23:37:17.301Z,4.50
2024-01-15T23:39:54.197Z,4.39
2024-01-15T23:42:22.194Z,4.23
2024-01-15T23:44:51.871Z,4.35
2024-01-15T23:47:18.669Z,4.39
2024-01-15T23:49:45.373Z,4.09
2024-01-15T23:52:11.793Z,4.10
2024-01-15T23:54:38.396Z,4.03
2024-01-15T23:57:05.718Z,4.11
2024-01-15T23:59:32.338Z,4.05
